Time;durP1;ratioP1;P1;durP2;ratioP2;P2;SDS_P1;SDS_P2;PMS_P1;PMS_P2;Temp;Humidity;BMP_temperature;BMP_pressure;BME280_temperature;BME280_humidity;BME280_pressure;Samples;Min_cycle;Max_cycle;Signal;HPM_P1;HPM_P2
2022/09/21 00:02:16;;;;;;;7.78;5.10;;;;;;;;;;10259902;28;20052;-86
2022/09/21 00:07:19;;;;;;;7.30;4.30;;;;;;;;;;10257086;28;20046;-87
2022/09/21 00:12:19;;;;;;;14.43;6.57;;;;;;;;;;10233664;29;20054;-86
2022/09/21 00:17:19;;;;;;;13.00;6.27;;;;;;;;;;10241864;29;20047;-87
2022/09/21 00:22:23;;;;;;;13.57;6.95;;;;;;;;;;10241787;28;20291;-87
2022/09/21 00:27:28;;;;;;;11.98;6.43;;;;;;;;;;10250752;29;20029;-87
2022/09/21 00:32:32;;;;;;;23.02;8.23;;;;;;;;;;10245099;28;20024;-87
2022/09/21 00:37:33;;;;;;;11.43;6.45;;;;;;;;;;10258558;28;20089;-88
2022/09/21 00:42:36;;;;;;;20.17;8.23;;;;;;;;;;10252409;28;20107;-86
2022/09/21 00:47:44;;;;;;;36.40;10.18;;;;;;;;;;10255493;28;20055;-87
2022/09/21 00:52:56;;;;;;;33.97;10.60;;;;;;;;;;10238180;28;20051;-88
2022/09/21 00:58:08;;;;;;;65.93;10.45;;;;;;;;;;10279341;28;20055;-88
2022/09/21 01:03:09;;;;;;;40.85;10.05;;;;;;;;;;10276304;28;20382;-88
2022/09/21 01:08:11;;;;;;;56.15;12.13;;;;;;;;;;10249847;28;20070;-87
2022/09/21 01:13:19;;;;;;;16.60;8.25;;;;;;;;;;10268166;28;20139;-90
2022/09/21 01:18:24;;;;;;;37.08;10.77;;;;;;;;;;10268954;28;20070;-85
2022/09/21 01:23:43;;;;;;;45.00;10.38;;;;;;;;;;10271163;28;20450;-86
2022/09/21 01:29:01;;;;;;;22.08;8.05;;;;;;;;;;10263180;28;20051;-86
2022/09/21 01:34:06;;;;;;;38.45;10.73;;;;;;;;;;10265860;28;20043;-83
2022/09/21 01:39:10;;;;;;;16.88;7.78;;;;;;;;;;10262387;28;20046;-84
2022/09/21 01:44:14;;;;;;;53.83;11.50;;;;;;;;;;10264349;28;20055;-83
2022/09/21 01:49:18;;;;;;;14.85;7.85;;;;;;;;;;10262372;28;20050;-83
2022/09/21 01:54:38;;;;;;;22.55;7.80;;;;;;;;;;10266900;28;20163;-85
2022/09/21 01:59:58;;;;;;;41.97;9.55;;;;;;;;;;10288784;28;20042;-86
2022/09/21 02:05:00;;;;;;;42.25;11.55;;;;;;;;;;10332256;28;20027;-87
2022/09/21 02:10:04;;;;;;;29.90;9.60;;;;;;;;;;10305854;28;20049;-85
2022/09/21 02:15:06;;;;;;;8.93;6.57;;;;;;;;;;10290695;28;20303;-83
2022/09/21 02:20:26;;;;;;;11.82;7.13;;;;;;;;;;10300035;28;20058;-86
2022/09/21 02:25:26;;;;;;;58.28;10.90;;;;;;;;;;10287726;28;20066;-83
2022/09/21 02:30:30;;;;;;;41.42;8.77;;;;;;;;;;10262842;28;20059;-82
2022/09/21 02:35:30;;;;;;;43.28;9.93;;;;;;;;;;10260242;28;20083;-84
2022/09/21 02:40:36;;;;;;;33.67;9.33;;;;;;;;;;10284092;28;20055;-82
2022/09/21 02:45:49;;;;;;;44.88;10.57;;;;;;;;;;10261034;28;20902;-82
2022/09/21 02:50:52;;;;;;;16.50;9.00;;;;;;;;;;10262200;28;20059;-84
2022/09/21 02:55:53;;;;;;;16.87;8.60;;;;;;;;;;10251669;28;20759;-83
2022/09/21 03:00:55;;;;;;;39.80;9.73;;;;;;;;;;10257169;28;20054;-82
2022/09/21 03:05:55;;;;;;;30.48;9.88;;;;;;;;;;10242487;28;20058;-82
2022/09/21 03:10:56;;;;;;;17.38;8.77;;;;;;;;;;10259759;28;20146;-82
2022/09/21 03:16:00;;;;;;;39.05;9.98;;;;;;;;;;10262357;28;20102;-83
2022/09/21 03:21:01;;;;;;;24.00;9.57;;;;;;;;;;10266692;28;20046;-82
2022/09/21 03:26:02;;;;;;;73.47;12.13;;;;;;;;;;10262103;28;20096;-83
2022/09/21 03:31:02;;;;;;;20.20;8.55;;;;;;;;;;10259583;28;20087;-83
2022/09/21 03:36:03;;;;;;;21.15;8.55;;;;;;;;;;10259275;28;20043;-82
2022/09/21 03:41:06;;;;;;;33.17;9.35;;;;;;;;;;10244817;28;20062;-84
2022/09/21 03:46:06;;;;;;;23.25;8.80;;;;;;;;;;10263095;28;20043;-86
2022/09/21 03:51:06;;;;;;;17.98;8.85;;;;;;;;;;10260234;28;20059;-86
2022/09/21 03:56:07;;;;;;;11.80;7.40;;;;;;;;;;10244131;28;20051;-85
2022/09/21 04:01:07;;;;;;;31.17;9.10;;;;;;;;;;10248754;28;20366;-84
2022/09/21 04:06:08;;;;;;;19.77;7.97;;;;;;;;;;10261255;28;20301;-83
2022/09/21 04:11:10;;;;;;;52.92;10.23;;;;;;;;;;10232980;28;20066;-83
2022/09/21 04:16:13;;;;;;;31.10;8.53;;;;;;;;;;10272018;28;20058;-86
2022/09/21 04:21:13;;;;;;;58.95;10.38;;;;;;;;;;10257560;28;20041;-88
2022/09/21 04:26:27;;;;;;;72.57;11.57;;;;;;;;;;10298343;28;20031;-88
2022/09/21 04:31:28;;;;;;;72.15;11.93;;;;;;;;;;10282326;28;20045;-86
2022/09/21 04:36:31;;;;;;;92.05;12.00;;;;;;;;;;10288328;28;20062;-85
2022/09/21 04:41:32;;;;;;;75.27;11.70;;;;;;;;;;10248801;28;20504;-85
2022/09/21 04:46:35;;;;;;;87.00;12.52;;;;;;;;;;10246794;28;20032;-87
2022/09/21 04:51:37;;;;;;;36.75;8.88;;;;;;;;;;10222262;29;20183;-84
2022/09/21 04:56:40;;;;;;;69.68;10.80;;;;;;;;;;10222267;28;20444;-85
2022/09/21 05:01:40;;;;;;;91.82;11.65;;;;;;;;;;10222332;29;20043;-85
2022/09/21 05:06:42;;;;;;;156.43;16.60;;;;;;;;;;10245687;28;20066;-85
2022/09/21 05:23:18;;;;;;;13.88;6.22;;;;;;;;;;10298187;28;20087;-86
2022/09/21 05:28:21;;;;;;;9.05;5.75;;;;;;;;;;10313747;28;20067;-83
2022/09/21 05:33:21;;;;;;;40.50;8.65;;;;;;;;;;10285528;28;20094;-82
2022/09/21 05:38:22;;;;;;;18.55;6.47;;;;;;;;;;10275231;28;20399;-83
2022/09/21 05:43:22;;;;;;;14.77;5.53;;;;;;;;;;10291703;28;20051;-83
2022/09/21 05:48:26;;;;;;;35.72;6.95;;;;;;;;;;10290155;28;20713;-82
2022/09/21 05:53:28;;;;;;;38.45;6.25;;;;;;;;;;10263239;28;20085;-87
2022/09/21 05:58:41;;;;;;;24.45;5.10;;;;;;;;;;10284457;28;20089;-85
2022/09/21 06:03:42;;;;;;;13.90;4.82;;;;;;;;;;10296943;28;20101;-81
2022/09/21 06:08:42;;;;;;;14.63;4.70;;;;;;;;;;10286091;28;20102;-86
2022/09/21 06:13:43;;;;;;;8.77;4.00;;;;;;;;;;10287708;28;20433;-84
2022/09/21 06:18:43;;;;;;;11.32;3.45;;;;;;;;;;10299203;28;20165;-85
2022/09/21 06:23:44;;;;;;;5.50;3.37;;;;;;;;;;10295651;28;20166;-85
2022/09/21 06:28:45;;;;;;;3.40;2.75;;;;;;;;;;10293814;28;20361;-84
2022/09/21 06:33:45;;;;;;;36.33;5.63;;;;;;;;;;10280250;28;20130;-80
2022/09/21 06:38:45;;;;;;;10.83;3.83;;;;;;;;;;10285024;28;20384;-84
2022/09/21 06:43:46;;;;;;;10.70;4.33;;;;;;;;;;10279715;28;20294;-86
2022/09/21 06:48:47;;;;;;;26.20;5.60;;;;;;;;;;10289175;28;20317;-86
2022/09/21 06:53:48;;;;;;;16.30;5.82;;;;;;;;;;10282587;28;20043;-85
2022/09/21 06:58:50;;;;;;;9.02;4.90;;;;;;;;;;10325817;28;20023;-84
2022/09/21 07:03:51;;;;;;;19.55;6.10;;;;;;;;;;10332344;28;20094;-86
2022/09/21 07:08:52;;;;;;;18.80;5.95;;;;;;;;;;10327297;28;20138;-86
2022/09/21 07:13:54;;;;;;;16.70;6.18;;;;;;;;;;10292785;28;20043;-85
2022/09/21 07:18:55;;;;;;;11.68;5.43;;;;;;;;;;10311228;28;20078;-87
2022/09/21 07:23:58;;;;;;;20.33;6.67;;;;;;;;;;10321878;28;20067;-85
2022/09/21 07:28:58;;;;;;;17.50;5.72;;;;;;;;;;10302652;28;20361;-85
2022/09/21 07:33:58;;;;;;;10.60;6.30;;;;;;;;;;10308640;28;20051;-83
2022/09/21 07:38:59;;;;;;;25.45;7.50;;;;;;;;;;10333162;28;20274;-86
2022/09/21 07:44:00;;;;;;;11.05;6.32;;;;;;;;;;10325082;28;20046;-85
2022/09/21 07:49:04;;;;;;;20.77;8.18;;;;;;;;;;10334223;28;20038;-87
2022/09/21 07:54:05;;;;;;;18.80;9.10;;;;;;;;;;10310128;28;20031;-84
2022/09/21 07:59:05;;;;;;;15.25;8.43;;;;;;;;;;10308845;28;20031;-84
2022/09/21 08:04:25;;;;;;;13.98;8.40;;;;;;;;;;10327979;28;20046;-85
2022/09/21 08:09:25;;;;;;;14.40;8.40;;;;;;;;;;10328238;28;20074;-85
2022/09/21 08:14:36;;;;;;;13.15;8.45;;;;;;;;;;10474442;23;20027;-83
2022/09/21 08:19:37;;;;;;;18.10;10.38;;;;;;;;;;10273361;28;20091;-83
2022/09/21 08:24:45;;;;;;;14.25;9.93;;;;;;;;;;10431155;23;20113;-84
2022/09/21 08:29:57;;;;;;;13.43;8.95;;;;;;;;;;10309382;28;20055;-84
2022/09/21 08:35:13;;;;;;;16.85;10.10;;;;;;;;;;10452125;23;20063;-84
2022/09/21 08:40:26;;;;;;;16.42;9.75;;;;;;;;;;10235030;28;20035;-85
2022/09/21 08:45:47;;;;;;;16.90;10.77;;;;;;;;;;10212452;29;20167;-85
2022/09/21 08:51:30;;;;;;;;;;;;;;;;;;;;;
2022/09/21 08:56:54;;;;;;;15.50;10.32;;;;;;;;;;10461310;23;20077;-85
2022/09/21 09:02:04;;;;;;;;;;;;;;;;;;10313421;28;20070;-86
2022/09/21 09:07:06;;;;;;;14.80;10.00;;;;;;;;;;10303283;28;19953;-79
2022/09/21 09:12:46;;;;;;;14.68;10.25;;;;;;;;;;10294083;28;20417;-85
2022/09/21 09:18:06;;;;;;;20.35;11.50;;;;;;;;;;10196736;28;20061;-85
2022/09/21 09:23:36;;;;;;;19.90;11.75;;;;;;;;;;10299496;28;20110;-85
2022/09/21 09:28:55;;;;;;;17.90;11.57;;;;;;;;;;10294688;28;20101;-82
2022/09/21 09:33:58;;;;;;;16.60;11.15;;;;;;;;;;10287655;28;20454;-83
2022/09/21 09:39:01;;;;;;;19.02;12.27;;;;;;;;;;10266420;28;20360;-83
2022/09/21 09:44:28;;;;;;;20.05;12.32;;;;;;;;;;10274113;29;20059;-83
2022/09/21 09:49:34;;;;;;;15.30;10.38;;;;;;;;;;10248791;28;20138;-83
2022/09/21 09:54:35;;;;;;;16.75;11.55;;;;;;;;;;10265697;29;20055;-86
2022/09/21 09:59:35;;;;;;;16.95;10.70;;;;;;;;;;10277644;28;20111;-81
2022/09/21 10:05:05;;;;;;;16.17;10.90;;;;;;;;;;10295652;28;20043;-82
2022/09/21 10:10:26;;;;;;;12.43;9.13;;;;;;;;;;10275874;28;20043;-84
2022/09/21 10:15:30;;;;;;;12.30;8.88;;;;;;;;;;10288445;28;20035;-83
2022/09/21 10:20:31;;;;;;;12.52;9.18;;;;;;;;;;10250915;29;20047;-83
2022/09/21 10:25:32;;;;;;;11.65;8.68;;;;;;;;;;10261879;28;20144;-79
2022/09/21 10:30:37;;;;;;;12.00;8.47;;;;;;;;;;10279991;28;20059;-82
2022/09/21 10:35:53;;;;;;;11.90;8.95;;;;;;;;;;10317904;23;20300;-85
2022/09/21 10:41:37;;;;;;;10.57;8.30;;;;;;;;;;10248335;28;20048;-83
2022/09/21 10:46:45;;;;;;;8.20;6.82;;;;;;;;;;10231428;28;20056;-85
2022/09/21 10:51:58;;;;;;;;;;;;;;;;;;;;;
2022/09/21 10:57:16;;;;;;;9.77;7.72;;;;;;;;;;10224574;29;20055;-83
2022/09/21 11:02:31;;;;;;;7.72;6.63;;;;;;;;;;10226554;29;20043;-80
2022/09/21 11:07:52;;;;;;;10.25;6.22;;;;;;;;;;10223851;29;20048;-84
2022/09/21 11:13:06;;;;;;;;;;;;;;;;;;10210334;29;20027;-80
2022/09/21 11:18:25;;;;;;;5.70;4.78;;;;;;;;;;10239270;29;19947;-82
2022/09/21 11:23:58;;;;;;;4.88;4.20;;;;;;;;;;10228209;29;20115;-81
2022/09/21 11:29:17;;;;;;;5.20;3.40;;;;;;;;;;10197781;29;20368;-81
2022/09/21 11:34:20;;;;;;;5.57;3.30;;;;;;;;;;10229539;29;20051;-81
2022/09/21 11:39:20;;;;;;;;;;;;;;;;;;10221847;29;20052;-84
2022/09/21 11:44:31;;;;;;;5.22;3.17;;;;;;;;;;10239162;29;19903;-86
2022/09/21 11:49:55;;;;;;;3.20;2.90;;;;;;;;;;10214555;29;20062;-83
2022/09/21 11:55:14;;;;;;;3.88;2.45;;;;;;;;;;10218118;29;20183;-87
2022/09/21 12:00:21;;;;;;;5.35;3.05;;;;;;;;;;10225753;29;20054;-83
2022/09/21 12:05:25;;;;;;;4.28;2.67;;;;;;;;;;10217694;29;20034;-80
2022/09/21 12:10:38;;;;;;;3.75;2.50;;;;;;;;;;10206305;29;20051;-83
2022/09/21 12:15:38;;;;;;;3.20;2.53;;;;;;;;;;10319989;28;20050;-84
2022/09/21 12:20:46;;;;;;;7.07;3.27;;;;;;;;;;10348507;28;20051;-85
2022/09/21 12:25:50;;;;;;;2.45;2.25;;;;;;;;;;10312066;28;20937;-85
2022/09/21 12:31:01;;;;;;;2.42;1.90;;;;;;;;;;10314417;28;20046;-84
2022/09/21 12:36:16;;;;;;;3.63;1.77;;;;;;;;;;10326543;28;20047;-84
2022/09/21 12:41:30;;;;;;;8.10;4.03;;;;;;;;;;10329179;28;20109;-82
2022/09/21 12:46:36;;;;;;;1.67;1.40;;;;;;;;;;10297505;28;20047;-81
2022/09/21 12:51:40;;;;;;;1.83;1.58;;;;;;;;;;10327085;28;20141;-82
2022/09/21 12:57:13;;;;;;;2.10;1.80;;;;;;;;;;10350188;28;20152;-83
2022/09/21 13:02:21;;;;;;;2.60;1.83;;;;;;;;;;10306279;28;20105;-83
2022/09/21 13:07:24;;;;;;;2.58;1.50;;;;;;;;;;10335130;28;20061;-82
2022/09/21 13:12:27;;;;;;;2.40;1.50;;;;;;;;;;10335328;28;20540;-81
2022/09/21 13:17:29;;;;;;;1.75;1.50;;;;;;;;;;10316603;28;20054;-83
2022/09/21 13:22:32;;;;;;;3.28;1.40;;;;;;;;;;10277344;28;20059;-83
2022/09/21 13:27:52;;;;;;;1.98;1.50;;;;;;;;;;10289897;28;20055;-83
2022/09/21 13:32:54;;;;;;;2.00;1.38;;;;;;;;;;10300861;28;20042;-85
2022/09/21 13:38:13;;;;;;;1.35;1.25;;;;;;;;;;10299481;28;20053;-84
2022/09/21 13:43:18;;;;;;;6.82;2.90;;;;;;;;;;10329163;28;20047;-84
2022/09/21 13:48:23;;;;;;;1.60;1.50;;;;;;;;;;10303860;28;20050;-87
2022/09/21 13:53:28;;;;;;;1.67;1.58;;;;;;;;;;10318531;28;20070;-84
2022/09/21 13:58:34;;;;;;;1.60;1.35;;;;;;;;;;10344759;28;20054;-85
2022/09/21 14:03:38;;;;;;;1.40;1.30;;;;;;;;;;10339393;28;20050;-85
2022/09/21 14:08:44;;;;;;;2.88;1.70;;;;;;;;;;10350302;28;20047;-87
2022/09/21 14:13:47;;;;;;;5.00;2.15;;;;;;;;;;10350042;28;20129;-84
2022/09/21 14:18:47;;;;;;;1.85;1.30;;;;;;;;;;10339541;28;20110;-83
2022/09/21 14:24:09;;;;;;;2.13;1.60;;;;;;;;;;10327930;28;20471;-84
2022/09/21 14:29:28;;;;;;;2.65;1.90;;;;;;;;;;10344611;28;20154;-84
2022/09/21 14:34:35;;;;;;;7.50;5.38;;;;;;;;;;10321269;28;20043;-82
2022/09/21 14:39:37;;;;;;;1.73;1.63;;;;;;;;;;10290668;28;20088;-85
2022/09/21 14:44:38;;;;;;;3.65;1.80;;;;;;;;;;10309828;28;20070;-84
2022/09/21 14:50:00;;;;;;;1.83;1.63;;;;;;;;;;10302415;28;20038;-81
2022/09/21 14:55:19;;;;;;;3.13;1.83;;;;;;;;;;10315904;28;20042;-82
2022/09/21 15:00:23;;;;;;;1.95;1.60;;;;;;;;;;10313497;28;20043;-82
2022/09/21 15:05:37;;;;;;;1.80;1.55;;;;;;;;;;10330242;28;20031;-82
2022/09/21 15:10:55;;;;;;;2.72;1.95;;;;;;;;;;10331556;28;20058;-80
2022/09/21 15:16:20;;;;;;;2.25;2.03;;;;;;;;;;10300477;28;20074;-84
2022/09/21 15:21:31;;;;;;;2.22;1.80;;;;;;;;;;10316216;28;20054;-82
2022/09/21 15:26:32;;;;;;;1.40;1.30;;;;;;;;;;10335080;28;20061;-82
2022/09/21 15:31:35;;;;;;;1.20;1.10;;;;;;;;;;10345192;28;20517;-81
2022/09/21 15:36:38;;;;;;;1.30;1.15;;;;;;;;;;10310456;28;20042;-85
2022/09/21 15:41:47;;;;;;;1.58;1.40;;;;;;;;;;10330825;28;20042;-84
2022/09/21 15:46:54;;;;;;;1.45;1.20;;;;;;;;;;10353434;28;20073;-85
2022/09/21 15:52:11;;;;;;;1.30;1.13;;;;;;;;;;10352572;28;20064;-84
2022/09/21 15:57:31;;;;;;;3.47;1.67;;;;;;;;;;10353336;28;20050;-84
2022/09/21 16:02:36;;;;;;;3.28;2.50;;;;;;;;;;10350056;28;20055;-79
2022/09/21 16:07:37;;;;;;;1.50;1.35;;;;;;;;;;10340246;28;20042;-78
2022/09/21 16:12:39;;;;;;;1.70;1.45;;;;;;;;;;10343035;28;20070;-79
2022/09/21 16:17:51;;;;;;;20.65;14.15;;;;;;;;;;10330997;28;20077;-80
2022/09/21 16:23:05;;;;;;;2.92;2.63;;;;;;;;;;10340374;28;20038;-85
2022/09/21 16:28:28;;;;;;;1.80;1.55;;;;;;;;;;10338652;28;20058;-83
2022/09/21 16:33:38;;;;;;;1.75;1.48;;;;;;;;;;10329205;28;20065;-84
2022/09/21 16:38:39;;;;;;;2.45;2.05;;;;;;;;;;10353596;28;20049;-84
2022/09/21 16:43:42;;;;;;;1.90;1.65;;;;;;;;;;10320150;28;20050;-85
2022/09/21 16:48:45;;;;;;;2.00;1.58;;;;;;;;;;10314661;28;20038;-85
2022/09/21 16:53:45;;;;;;;2.85;1.65;;;;;;;;;;10336957;28;20038;-82
2022/09/21 16:58:46;;;;;;;1.55;1.30;;;;;;;;;;10341331;28;20085;-87
2022/09/21 17:03:46;;;;;;;2.95;2.08;;;;;;;;;;10344004;28;20166;-83
2022/09/21 17:08:48;;;;;;;2.20;1.77;;;;;;;;;;10320192;28;20057;-83
2022/09/21 17:13:49;;;;;;;2.65;2.45;;;;;;;;;;10311073;28;20046;-79
2022/09/21 17:18:49;;;;;;;2.92;2.20;;;;;;;;;;10334874;28;20046;-84
2022/09/21 17:23:53;;;;;;;2.85;2.55;;;;;;;;;;10330797;28;20454;-81
2022/09/21 17:28:53;;;;;;;3.20;2.55;;;;;;;;;;10332081;28;20066;-81
2022/09/21 17:33:55;;;;;;;3.63;2.50;;;;;;;;;;10338317;28;20387;-81
2022/09/21 17:38:56;;;;;;;3.90;2.00;;;;;;;;;;10297987;28;20473;-82
2022/09/21 17:44:15;;;;;;;3.03;2.28;;;;;;;;;;10339229;28;20049;-82
2022/09/21 17:49:17;;;;;;;2.80;2.58;;;;;;;;;;10343877;28;20058;-81
2022/09/21 17:54:20;;;;;;;3.42;2.25;;;;;;;;;;10328376;28;20418;-81
2022/09/21 17:59:23;;;;;;;3.92;2.17;;;;;;;;;;10328646;28;20050;-82
2022/09/21 18:04:26;;;;;;;2.85;2.40;;;;;;;;;;10330246;28;20078;-83
2022/09/21 18:09:29;;;;;;;3.65;2.30;;;;;;;;;;10346478;28;20117;-82
2022/09/21 18:14:42;;;;;;;4.93;3.70;;;;;;;;;;10348490;28;20039;-81
2022/09/21 18:19:43;;;;;;;3.28;2.58;;;;;;;;;;10316936;28;20123;-81
2022/09/21 18:24:44;;;;;;;5.40;3.40;;;;;;;;;;10325320;28;20050;-80
2022/09/21 18:29:46;;;;;;;4.85;3.38;;;;;;;;;;10344457;28;20051;-80
2022/09/21 18:34:46;;;;;;;5.97;4.10;;;;;;;;;;10343896;28;20062;-78
2022/09/21 18:40:07;;;;;;;3.58;2.85;;;;;;;;;;10316548;28;20047;-80
2022/09/21 19:01:00;;;;;;;5.80;4.18;;;;;;;;;;12900702;22;1517046;-79
2022/09/21 19:06:08;;;;;;;5.07;3.75;;;;;;;;;;12950481;23;20070;-79
2022/09/21 19:11:30;;;;;;;5.47;3.95;;;;;;;;;;12953556;22;20016;-80
2022/09/21 19:16:41;;;;;;;7.28;5.15;;;;;;;;;;12950251;22;20004;-78
2022/09/21 19:21:49;;;;;;;4.65;3.97;;;;;;;;;;12921317;23;20012;-77
2022/09/21 19:27:08;;;;;;;4.97;4.05;;;;;;;;;;12968707;22;20020;-82
2022/09/21 19:32:16;;;;;;;4.40;3.92;;;;;;;;;;12977855;23;20016;-83
2022/09/21 19:37:27;;;;;;;5.35;4.28;;;;;;;;;;12969712;22;20079;-82
2022/09/21 19:42:39;;;;;;;5.15;4.57;;;;;;;;;;12971202;22;20004;-83
2022/09/21 19:48:00;;;;;;;4.50;4.10;;;;;;;;;;13027598;22;20016;-84
2022/09/21 20:03:52;;;;;;;6.22;5.15;;;;;;;;;;12912002;22;20020;-86
2022/09/21 20:09:08;;;;;;;7.68;5.53;;;;;;;;;;12923015;22;20076;-85
2022/09/21 20:14:15;;;;;;;6.18;4.78;;;;;;;;;;12916309;22;19996;-88
2022/09/21 20:19:19;;;;;;;7.93;5.63;;;;;;;;;;12888287;22;20024;-86
2022/09/21 20:24:40;;;;;;;7.95;5.78;;;;;;;;;;12910943;23;20012;-89
2022/09/21 20:29:42;;;;;;;8.07;5.95;;;;;;;;;;12906425;22;20023;-87
2022/09/21 20:34:43;;;;;;;6.50;5.15;;;;;;;;;;12997654;22;20072;-88
2022/09/21 20:39:48;;;;;;;7.23;5.77;;;;;;;;;;12983229;22;20082;-86
2022/09/21 20:44:58;;;;;;;6.82;5.60;;;;;;;;;;12982705;22;20308;-86
2022/09/21 20:49:58;;;;;;;8.38;6.55;;;;;;;;;;12909833;22;20431;-88
2022/09/21 20:55:00;;;;;;;8.40;6.85;;;;;;;;;;12919843;23;20131;-87
2022/09/21 21:00:03;;;;;;;10.00;6.03;;;;;;;;;;12902788;23;20239;-83
2022/09/21 21:05:09;;;;;;;8.65;7.30;;;;;;;;;;12940832;22;20008;-83
2022/09/21 21:10:14;;;;;;;10.45;7.28;;;;;;;;;;12906475;22;20024;-86
2022/09/21 21:15:15;;;;;;;10.25;8.13;;;;;;;;;;13015843;22;20140;-86
2022/09/21 21:20:17;;;;;;;8.63;7.40;;;;;;;;;;12979738;22;20065;-85
2022/09/21 21:25:19;;;;;;;;;;;;;;;;;;13010363;22;20011;-87
2022/09/21 21:30:20;;;;;;;9.70;7.43;;;;;;;;;;13006440;22;19930;-87
2022/09/21 21:35:21;;;;;;;9.68;7.20;;;;;;;;;;12986881;22;20006;-87
2022/09/21 21:40:27;;;;;;;11.95;8.38;;;;;;;;;;13000463;22;20035;-87
2022/09/21 21:45:40;;;;;;;11.60;9.13;;;;;;;;;;12969063;22;20067;-87
2022/09/21 21:50:41;;;;;;;10.43;7.23;;;;;;;;;;12966006;22;20060;-87
2022/09/21 21:55:41;;;;;;;10.77;7.88;;;;;;;;;;12950737;22;20306;-85
2022/09/21 22:00:44;;;;;;;10.70;8.10;;;;;;;;;;12986436;22;20026;-86
2022/09/21 22:06:10;;;;;;;14.65;7.55;;;;;;;;;;13038319;22;19999;-85
2022/09/21 22:11:10;;;;;;;9.68;7.35;;;;;;;;;;12980151;22;20039;-83
2022/09/21 22:16:15;;;;;;;11.25;6.93;;;;;;;;;;12913427;22;20047;-86
2022/09/21 22:21:28;;;;;;;8.63;6.95;;;;;;;;;;12939562;22;20044;-81
2022/09/21 22:26:30;;;;;;;11.18;7.80;;;;;;;;;;12941668;23;20004;-82
2022/09/21 22:37:17;;;;;;;7.50;6.50;;;;;;;;;;12926431;23;20020;-82
2022/09/21 22:42:17;;;;;;;7.30;6.40;;;;;;;;;;12931641;22;20008;-84
2022/09/21 22:59:02;;;;;;;8.25;6.03;;;;;;;;;;12916547;23;20348;-77
2022/09/21 23:04:08;;;;;;;6.75;5.75;;;;;;;;;;12940087;23;20511;-79
2022/09/21 23:09:12;;;;;;;8.90;6.03;;;;;;;;;;12932528;23;20080;-78
2022/09/21 23:14:14;;;;;;;7.43;6.22;;;;;;;;;;12906221;23;20091;-79
2022/09/21 23:19:14;;;;;;;8.90;6.22;;;;;;;;;;12929947;23;20016;-78
2022/09/21 23:24:14;;;;;;;8.37;5.77;;;;;;;;;;12892655;23;20048;-79
2022/09/21 23:29:15;;;;;;;10.13;6.18;;;;;;;;;;12925492;23;20016;-78
2022/09/21 23:34:15;;;;;;;8.43;7.22;;;;;;;;;;12934198;23;20340;-79
2022/09/21 23:39:16;;;;;;;9.23;5.80;;;;;;;;;;12922912;22;20439;-78
2022/09/21 23:44:16;;;;;;;6.70;5.77;;;;;;;;;;12921921;23;20036;-80
2022/09/21 23:49:16;;;;;;;7.37;6.27;;;;;;;;;;12920765;23;20047;-80
2022/09/21 23:54:18;;;;;;;8.05;5.55;;;;;;;;;;12921079;23;20265;-82
2022/09/21 23:59:18;;;;;;;8.55;5.85;;;;;;;;;;12923690;23;20023;-81
